sensor_id;sensor_type;location;lat;lon;timestamp;P1;durP1;ratioP1;P2;durP2;ratioP2
31081;SDS011;17737;52.586;13.284;2022-12-18T00:01:26;4.45;;;2.83;;
31081;SDS011;17737;52.586;13.284;2022-12-18T00:03:57;5.78;;;3.70;;
31081;SDS011;17737;52.586;13.284;2022-12-18T00:08:57;5.07;;;3.15;;
31081;SDS011;17737;52.586;13.284;2022-12-18T00:11:26;5.20;;;3.45;;
31081;SDS011;17737;52.586;13.284;2022-12-18T00:13:56;7.03;;;3.90;;
31081;SDS011;17737;52.586;13.284;2022-12-18T00:16:25;4.80;;;3.50;;
31081;SDS011;17737;52.586;13.284;2022-12-18T00:18:55;4.35;;;2.97;;
31081;SDS011;17737;52.586;13.284;2022-12-18T00:23:51;4.22;;;3.03;;
31081;SDS011;17737;52.586;13.284;2022-12-18T00:26:22;5.07;;;3.33;;
31081;SDS011;17737;52.586;13.284;2022-12-18T00:28:51;4.78;;;3.10;;
31081;SDS011;17737;52.586;13.284;2022-12-18T00:31:20;4.75;;;3.17;;
31081;SDS011;17737;52.586;13.284;2022-12-18T00:33:50;4.45;;;3.33;;
31081;SDS011;17737;52.586;13.284;2022-12-18T00:36:21;4.57;;;3.47;;
31081;SDS011;17737;52.586;13.284;2022-12-18T00:38:50;5.30;;;3.30;;
31081;SDS011;17737;52.586;13.284;2022-12-18T00:41:18;4.20;;;3.00;;
31081;SDS011;17737;52.586;13.284;2022-12-18T00:44:02;5.68;;;3.53;;
31081;SDS011;17737;52.586;13.284;2022-12-18T00:46:30;6.28;;;3.85;;
31081;SDS011;17737;52.586;13.284;2022-12-18T00:48:59;5.43;;;3.87;;
31081;SDS011;17737;52.586;13.284;2022-12-18T00:51:26;5.28;;;3.72;;
31081;SDS011;17737;52.586;13.284;2022-12-18T00:53:54;5.20;;;3.63;;
31081;SDS011;17737;52.586;13.284;2022-12-18T00:56:22;6.13;;;3.78;;
31081;SDS011;17737;52.586;13.284;2022-12-18T00:58:50;4.78;;;3.13;;
31081;SDS011;17737;52.586;13.284;2022-12-18T01:01:19;4.60;;;3.30;;
31081;SDS011;17737;52.586;13.284;2022-12-18T01:03:47;5.15;;;3.45;;
31081;SDS011;17737;52.586;13.284;2022-12-18T01:06:15;5.57;;;3.10;;
31081;SDS011;17737;52.586;13.284;2022-12-18T01:08:44;4.15;;;2.80;;
31081;SDS011;17737;52.586;13.284;2022-12-18T01:11:13;4.05;;;3.03;;
31081;SDS011;17737;52.586;13.284;2022-12-18T01:13:42;4.95;;;3.03;;
31081;SDS011;17737;52.586;13.284;2022-12-18T01:16:11;4.90;;;3.20;;
31081;SDS011;17737;52.586;13.284;2022-12-18T01:21:09;4.68;;;3.00;;
31081;SDS011;17737;52.586;13.284;2022-12-18T01:23:38;5.30;;;3.33;;
31081;SDS011;17737;52.586;13.284;2022-12-18T01:26:07;5.28;;;3.20;;
31081;SDS011;17737;52.586;13.284;2022-12-18T01:28:36;4.07;;;2.78;;
31081;SDS011;17737;52.586;13.284;2022-12-18T01:31:13;5.38;;;3.88;;
31081;SDS011;17737;52.586;13.284;2022-12-18T01:33:45;4.55;;;3.03;;
31081;SDS011;17737;52.586;13.284;2022-12-18T01:36:17;4.63;;;3.00;;
31081;SDS011;17737;52.586;13.284;2022-12-18T01:38:47;4.78;;;3.20;;
31081;SDS011;17737;52.586;13.284;2022-12-18T01:41:16;4.47;;;3.13;;
31081;SDS011;17737;52.586;13.284;2022-12-18T01:43:47;4.47;;;3.28;;
31081;SDS011;17737;52.586;13.284;2022-12-18T01:46:18;4.35;;;3.33;;
31081;SDS011;17737;52.586;13.284;2022-12-18T01:48:49;4.57;;;2.80;;
31081;SDS011;17737;52.586;13.284;2022-12-18T01:51:21;4.05;;;2.85;;
31081;SDS011;17737;52.586;13.284;2022-12-18T01:53:49;4.38;;;3.03;;
31081;SDS011;17737;52.586;13.284;2022-12-18T01:56:18;4.93;;;2.88;;
31081;SDS011;17737;52.586;13.284;2022-12-18T01:58:50;5.05;;;3.35;;
31081;SDS011;17737;52.586;13.284;2022-12-18T02:01:22;4.72;;;3.20;;
31081;SDS011;17737;52.586;13.284;2022-12-18T02:03:52;4.25;;;3.33;;
31081;SDS011;17737;52.586;13.284;2022-12-18T02:06:20;4.75;;;3.35;;
31081;SDS011;17737;52.586;13.284;2022-12-18T02:08:57;5.38;;;3.40;;
31081;SDS011;17737;52.586;13.284;2022-12-18T02:11:33;4.72;;;3.38;;
31081;SDS011;17737;52.586;13.284;2022-12-18T02:14:15;4.57;;;2.67;;
31081;SDS011;17737;52.586;13.284;2022-12-18T02:16:52;4.75;;;3.20;;
31081;SDS011;17737;52.586;13.284;2022-12-18T02:19:39;5.10;;;3.08;;
31081;SDS011;17737;52.586;13.284;2022-12-18T02:22:18;4.30;;;3.35;;
31081;SDS011;17737;52.586;13.284;2022-12-18T02:24:58;4.10;;;2.92;;
31081;SDS011;17737;52.586;13.284;2022-12-18T02:27:34;5.63;;;3.47;;
31081;SDS011;17737;52.586;13.284;2022-12-18T02:30:05;4.88;;;3.15;;
31081;SDS011;17737;52.586;13.284;2022-12-18T02:32:35;4.95;;;3.75;;
31081;SDS011;17737;52.586;13.284;2022-12-18T02:35:10;5.82;;;3.50;;
31081;SDS011;17737;52.586;13.284;2022-12-18T02:37:40;5.07;;;3.67;;
31081;SDS011;17737;52.586;13.284;2022-12-18T02:40:11;5.47;;;3.15;;
31081;SDS011;17737;52.586;13.284;2022-12-18T02:42:42;5.07;;;3.30;;
31081;SDS011;17737;52.586;13.284;2022-12-18T02:47:38;6.25;;;3.35;;
31081;SDS011;17737;52.586;13.284;2022-12-18T02:50:10;4.90;;;3.33;;
31081;SDS011;17737;52.586;13.284;2022-12-18T02:52:45;4.72;;;3.40;;
31081;SDS011;17737;52.586;13.284;2022-12-18T02:55:26;5.32;;;3.05;;
31081;SDS011;17737;52.586;13.284;2022-12-18T02:58:03;5.72;;;3.38;;
31081;SDS011;17737;52.586;13.284;2022-12-18T03:00:37;5.30;;;3.10;;
31081;SDS011;17737;52.586;13.284;2022-12-18T03:03:09;5.40;;;3.65;;
31081;SDS011;17737;52.586;13.284;2022-12-18T03:05:43;5.63;;;3.75;;
31081;SDS011;17737;52.586;13.284;2022-12-18T03:08:15;6.03;;;3.95;;
31081;SDS011;17737;52.586;13.284;2022-12-18T03:10:48;4.90;;;3.33;;
31081;SDS011;17737;52.586;13.284;2022-12-18T03:13:20;5.18;;;3.25;;
31081;SDS011;17737;52.586;13.284;2022-12-18T03:15:53;5.60;;;3.92;;
31081;SDS011;17737;52.586;13.284;2022-12-18T03:18:25;5.18;;;3.45;;
31081;SDS011;17737;52.586;13.284;2022-12-18T03:20:57;4.93;;;2.80;;
31081;SDS011;17737;52.586;13.284;2022-12-18T03:23:32;5.10;;;3.53;;
31081;SDS011;17737;52.586;13.284;2022-12-18T03:26:05;5.20;;;3.13;;
31081;SDS011;17737;52.586;13.284;2022-12-18T03:28:38;5.68;;;2.88;;
31081;SDS011;17737;52.586;13.284;2022-12-18T03:31:10;5.45;;;3.45;;
31081;SDS011;17737;52.586;13.284;2022-12-18T03:33:41;4.25;;;2.70;;
31081;SDS011;17737;52.586;13.284;2022-12-18T03:36:13;5.43;;;3.88;;
31081;SDS011;17737;52.586;13.284;2022-12-18T03:38:42;6.22;;;4.50;;
31081;SDS011;17737;52.586;13.284;2022-12-18T03:41:12;4.85;;;3.03;;
31081;SDS011;17737;52.586;13.284;2022-12-18T03:43:49;4.90;;;3.20;;
31081;SDS011;17737;52.586;13.284;2022-12-18T03:46:24;5.38;;;3.33;;
31081;SDS011;17737;52.586;13.284;2022-12-18T03:48:58;4.45;;;3.15;;
31081;SDS011;17737;52.586;13.284;2022-12-18T03:51:36;5.72;;;3.47;;
31081;SDS011;17737;52.586;13.284;2022-12-18T03:54:09;3.92;;;2.70;;
31081;SDS011;17737;52.586;13.284;2022-12-18T03:56:39;5.00;;;3.40;;
31081;SDS011;17737;52.586;13.284;2022-12-18T03:59:12;4.60;;;2.97;;
31081;SDS011;17737;52.586;13.284;2022-12-18T04:01:45;5.00;;;3.45;;
31081;SDS011;17737;52.586;13.284;2022-12-18T04:04:15;5.07;;;3.67;;
31081;SDS011;17737;52.586;13.284;2022-12-18T04:06:45;5.40;;;3.78;;
31081;SDS011;17737;52.586;13.284;2022-12-18T04:09:15;5.13;;;3.20;;
31081;SDS011;17737;52.586;13.284;2022-12-18T04:11:43;5.70;;;3.20;;
31081;SDS011;17737;52.586;13.284;2022-12-18T04:14:11;4.75;;;3.25;;
31081;SDS011;17737;52.586;13.284;2022-12-18T04:16:43;4.85;;;3.22;;
31081;SDS011;17737;52.586;13.284;2022-12-18T04:19:11;5.03;;;3.47;;
31081;SDS011;17737;52.586;13.284;2022-12-18T04:21:39;4.68;;;3.03;;
31081;SDS011;17737;52.586;13.284;2022-12-18T04:24:07;6.57;;;4.13;;
31081;SDS011;17737;52.586;13.284;2022-12-18T04:26:35;5.57;;;3.45;;
31081;SDS011;17737;52.586;13.284;2022-12-18T04:29:04;5.15;;;3.58;;
31081;SDS011;17737;52.586;13.284;2022-12-18T04:31:33;5.07;;;3.30;;
31081;SDS011;17737;52.586;13.284;2022-12-18T04:34:01;4.50;;;2.92;;
31081;SDS011;17737;52.586;13.284;2022-12-18T04:36:29;5.82;;;3.65;;
31081;SDS011;17737;52.586;13.284;2022-12-18T04:38:57;4.60;;;2.95;;
31081;SDS011;17737;52.586;13.284;2022-12-18T04:41:25;7.35;;;3.63;;
31081;SDS011;17737;52.586;13.284;2022-12-18T04:43:52;4.90;;;3.22;;
31081;SDS011;17737;52.586;13.284;2022-12-18T04:46:20;6.15;;;3.42;;
31081;SDS011;17737;52.586;13.284;2022-12-18T04:48:49;5.05;;;3.00;;
31081;SDS011;17737;52.586;13.284;2022-12-18T04:53:51;5.65;;;3.70;;
31081;SDS011;17737;52.586;13.284;2022-12-18T04:56:19;4.72;;;3.40;;
31081;SDS011;17737;52.586;13.284;2022-12-18T04:58:48;4.13;;;3.10;;
31081;SDS011;17737;52.586;13.284;2022-12-18T05:01:16;5.88;;;4.03;;
31081;SDS011;17737;52.586;13.284;2022-12-18T05:03:45;5.38;;;3.55;;
31081;SDS011;17737;52.586;13.284;2022-12-18T05:06:14;5.83;;;3.90;;
31081;SDS011;17737;52.586;13.284;2022-12-18T05:11:12;6.68;;;3.80;;
31081;SDS011;17737;52.586;13.284;2022-12-18T05:13:42;6.18;;;4.35;;
31081;SDS011;17737;52.586;13.284;2022-12-18T05:16:10;5.30;;;4.30;;
31081;SDS011;17737;52.586;13.284;2022-12-18T05:18:38;6.88;;;4.35;;
31081;SDS011;17737;52.586;13.284;2022-12-18T05:21:06;7.20;;;4.53;;
31081;SDS011;17737;52.586;13.284;2022-12-18T05:23:35;5.25;;;3.67;;
31081;SDS011;17737;52.586;13.284;2022-12-18T05:26:05;6.53;;;4.10;;
31081;SDS011;17737;52.586;13.284;2022-12-18T05:28:34;6.55;;;4.03;;
31081;SDS011;17737;52.586;13.284;2022-12-18T05:31:03;6.55;;;4.15;;
31081;SDS011;17737;52.586;13.284;2022-12-18T05:33:32;6.65;;;4.45;;
31081;SDS011;17737;52.586;13.284;2022-12-18T05:36:03;6.93;;;5.07;;
31081;SDS011;17737;52.586;13.284;2022-12-18T05:38:33;6.60;;;4.82;;
31081;SDS011;17737;52.586;13.284;2022-12-18T05:43:31;8.30;;;5.18;;
31081;SDS011;17737;52.586;13.284;2022-12-18T05:46:03;7.35;;;5.13;;
31081;SDS011;17737;52.586;13.284;2022-12-18T05:48:31;8.75;;;4.60;;
31081;SDS011;17737;52.586;13.284;2022-12-18T05:51:03;8.23;;;5.25;;
31081;SDS011;17737;52.586;13.284;2022-12-18T05:53:32;6.55;;;4.63;;
31081;SDS011;17737;52.586;13.284;2022-12-18T05:56:03;5.03;;;3.85;;
31081;SDS011;17737;52.586;13.284;2022-12-18T05:58:32;8.95;;;6.20;;
31081;SDS011;17737;52.586;13.284;2022-12-18T06:01:06;7.82;;;4.70;;
31081;SDS011;17737;52.586;13.284;2022-12-18T06:03:36;7.80;;;4.85;;
31081;SDS011;17737;52.586;13.284;2022-12-18T06:06:12;6.45;;;4.78;;
31081;SDS011;17737;52.586;13.284;2022-12-18T06:08:40;8.13;;;5.78;;
31081;SDS011;17737;52.586;13.284;2022-12-18T06:11:15;6.90;;;5.32;;
31081;SDS011;17737;52.586;13.284;2022-12-18T06:13:45;7.18;;;5.13;;
31081;SDS011;17737;52.586;13.284;2022-12-18T06:16:13;4.45;;;3.45;;
31081;SDS011;17737;52.586;13.284;2022-12-18T06:18:41;8.63;;;5.18;;
31081;SDS011;17737;52.586;13.284;2022-12-18T06:21:09;8.20;;;5.15;;
31081;SDS011;17737;52.586;13.284;2022-12-18T06:23:37;7.43;;;5.13;;
31081;SDS011;17737;52.586;13.284;2022-12-18T06:26:06;7.70;;;5.60;;
31081;SDS011;17737;52.586;13.284;2022-12-18T06:28:36;7.95;;;5.25;;
31081;SDS011;17737;52.586;13.284;2022-12-18T06:31:04;7.45;;;5.57;;
31081;SDS011;17737;52.586;13.284;2022-12-18T06:33:33;7.35;;;5.35;;
31081;SDS011;17737;52.586;13.284;2022-12-18T06:36:02;8.45;;;4.78;;
31081;SDS011;17737;52.586;13.284;2022-12-18T06:38:31;6.95;;;4.88;;
31081;SDS011;17737;52.586;13.284;2022-12-18T06:40:59;8.52;;;5.22;;
31081;SDS011;17737;52.586;13.284;2022-12-18T06:43:27;5.95;;;4.30;;
31081;SDS011;17737;52.586;13.284;2022-12-18T06:45:59;8.05;;;4.88;;
31081;SDS011;17737;52.586;13.284;2022-12-18T06:48:28;7.80;;;5.32;;
31081;SDS011;17737;52.586;13.284;2022-12-18T06:50:56;6.65;;;4.47;;
31081;SDS011;17737;52.586;13.284;2022-12-18T06:53:24;6.78;;;4.78;;
31081;SDS011;17737;52.586;13.284;2022-12-18T06:55:52;7.72;;;5.35;;
31081;SDS011;17737;52.586;13.284;2022-12-18T06:58:20;7.68;;;4.55;;
31081;SDS011;17737;52.586;13.284;2022-12-18T07:00:48;6.22;;;4.70;;
31081;SDS011;17737;52.586;13.284;2022-12-18T07:03:17;7.88;;;4.80;;
31081;SDS011;17737;52.586;13.284;2022-12-18T07:08:12;6.50;;;4.55;;
31081;SDS011;17737;52.586;13.284;2022-12-18T07:10:41;7.18;;;5.10;;
31081;SDS011;17737;52.586;13.284;2022-12-18T07:13:13;7.90;;;5.18;;
31081;SDS011;17737;52.586;13.284;2022-12-18T07:15:41;7.82;;;5.57;;
31081;SDS011;17737;52.586;13.284;2022-12-18T07:18:09;7.25;;;5.40;;
31081;SDS011;17737;52.586;13.284;2022-12-18T07:20:40;7.68;;;5.05;;
31081;SDS011;17737;52.586;13.284;2022-12-18T07:23:08;7.60;;;5.13;;
31081;SDS011;17737;52.586;13.284;2022-12-18T07:25:35;7.00;;;4.60;;
31081;SDS011;17737;52.586;13.284;2022-12-18T07:28:04;8.88;;;5.82;;
31081;SDS011;17737;52.586;13.284;2022-12-18T07:30:32;7.32;;;5.15;;
31081;SDS011;17737;52.586;13.284;2022-12-18T07:33:00;7.72;;;5.40;;
31081;SDS011;17737;52.586;13.284;2022-12-18T07:35:27;6.80;;;5.07;;
31081;SDS011;17737;52.586;13.284;2022-12-18T07:37:56;8.02;;;4.57;;
31081;SDS011;17737;52.586;13.284;2022-12-18T07:40:24;6.20;;;4.45;;
31081;SDS011;17737;52.586;13.284;2022-12-18T07:42:52;7.93;;;4.95;;
31081;SDS011;17737;52.586;13.284;2022-12-18T07:45:20;6.95;;;5.40;;
31081;SDS011;17737;52.586;13.284;2022-12-18T07:47:47;5.95;;;4.55;;
31081;SDS011;17737;52.586;13.284;2022-12-18T07:50:15;6.35;;;4.70;;
31081;SDS011;17737;52.586;13.284;2022-12-18T07:52:43;5.72;;;4.25;;
31081;SDS011;17737;52.586;13.284;2022-12-18T07:55:13;5.75;;;4.20;;
31081;SDS011;17737;52.586;13.284;2022-12-18T08:00:20;6.07;;;4.55;;
31081;SDS011;17737;52.586;13.284;2022-12-18T08:02:48;5.10;;;3.85;;
31081;SDS011;17737;52.586;13.284;2022-12-18T08:05:16;6.43;;;3.70;;
31081;SDS011;17737;52.586;13.284;2022-12-18T08:07:44;5.47;;;3.53;;
31081;SDS011;17737;52.586;13.284;2022-12-18T08:10:13;5.85;;;3.97;;
31081;SDS011;17737;52.586;13.284;2022-12-18T08:12:41;5.20;;;3.22;;
31081;SDS011;17737;52.586;13.284;2022-12-18T08:15:09;5.10;;;3.85;;
31081;SDS011;17737;52.586;13.284;2022-12-18T08:17:37;4.32;;;3.15;;
31081;SDS011;17737;52.586;13.284;2022-12-18T08:20:05;5.88;;;4.35;;
31081;SDS011;17737;52.586;13.284;2022-12-18T08:22:34;9.48;;;4.05;;
31081;SDS011;17737;52.586;13.284;2022-12-18T08:25:06;5.28;;;3.50;;
31081;SDS011;17737;52.586;13.284;2022-12-18T08:27:36;6.07;;;4.57;;
31081;SDS011;17737;52.586;13.284;2022-12-18T08:30:04;6.38;;;4.15;;
31081;SDS011;17737;52.586;13.284;2022-12-18T08:32:33;5.57;;;4.25;;
31081;SDS011;17737;52.586;13.284;2022-12-18T08:35:02;6.18;;;4.10;;
31081;SDS011;17737;52.586;13.284;2022-12-18T08:37:30;5.30;;;3.53;;
31081;SDS011;17737;52.586;13.284;2022-12-18T08:39:58;5.55;;;3.67;;
31081;SDS011;17737;52.586;13.284;2022-12-18T08:42:26;5.25;;;3.80;;
31081;SDS011;17737;52.586;13.284;2022-12-18T08:45:14;5.45;;;3.65;;
31081;SDS011;17737;52.586;13.284;2022-12-18T08:47:42;5.65;;;4.07;;
31081;SDS011;17737;52.586;13.284;2022-12-18T08:50:12;5.72;;;3.88;;
31081;SDS011;17737;52.586;13.284;2022-12-18T08:52:40;6.20;;;4.00;;
31081;SDS011;17737;52.586;13.284;2022-12-18T08:55:08;4.60;;;3.67;;
31081;SDS011;17737;52.586;13.284;2022-12-18T08:57:36;5.32;;;3.83;;
31081;SDS011;17737;52.586;13.284;2022-12-18T09:00:04;5.75;;;3.65;;
31081;SDS011;17737;52.586;13.284;2022-12-18T09:02:35;5.00;;;3.63;;
31081;SDS011;17737;52.586;13.284;2022-12-18T09:05:03;4.95;;;3.53;;
31081;SDS011;17737;52.586;13.284;2022-12-18T09:07:32;6.95;;;4.30;;
31081;SDS011;17737;52.586;13.284;2022-12-18T09:09:59;6.25;;;4.10;;
31081;SDS011;17737;52.586;13.284;2022-12-18T09:12:27;5.32;;;4.05;;
31081;SDS011;17737;52.586;13.284;2022-12-18T09:14:55;5.07;;;3.42;;
31081;SDS011;17737;52.586;13.284;2022-12-18T09:17:23;5.82;;;3.58;;
31081;SDS011;17737;52.586;13.284;2022-12-18T09:19:52;6.75;;;4.28;;
31081;SDS011;17737;52.586;13.284;2022-12-18T09:24:48;5.45;;;3.38;;
31081;SDS011;17737;52.586;13.284;2022-12-18T09:27:16;5.07;;;4.25;;
31081;SDS011;17737;52.586;13.284;2022-12-18T09:29:44;5.00;;;3.83;;
31081;SDS011;17737;52.586;13.284;2022-12-18T09:32:11;5.68;;;3.50;;
31081;SDS011;17737;52.586;13.284;2022-12-18T09:34:47;5.80;;;3.65;;
31081;SDS011;17737;52.586;13.284;2022-12-18T09:37:16;4.53;;;3.22;;
31081;SDS011;17737;52.586;13.284;2022-12-18T09:39:44;5.35;;;3.40;;
31081;SDS011;17737;52.586;13.284;2022-12-18T09:42:14;4.63;;;3.33;;
31081;SDS011;17737;52.586;13.284;2022-12-18T09:44:48;5.07;;;3.30;;
31081;SDS011;17737;52.586;13.284;2022-12-18T09:47:20;5.88;;;3.67;;
31081;SDS011;17737;52.586;13.284;2022-12-18T09:49:52;5.25;;;3.88;;
31081;SDS011;17737;52.586;13.284;2022-12-18T09:52:26;4.40;;;3.28;;
31081;SDS011;17737;52.586;13.284;2022-12-18T09:54:59;4.45;;;3.28;;
31081;SDS011;17737;52.586;13.284;2022-12-18T09:57:33;4.68;;;3.15;;
31081;SDS011;17737;52.586;13.284;2022-12-18T10:00:15;4.25;;;2.92;;
31081;SDS011;17737;52.586;13.284;2022-12-18T10:02:46;5.13;;;2.90;;
31081;SDS011;17737;52.586;13.284;2022-12-18T10:05:16;4.20;;;3.25;;
31081;SDS011;17737;52.586;13.284;2022-12-18T10:07:50;4.53;;;3.20;;
31081;SDS011;17737;52.586;13.284;2022-12-18T10:10:26;5.57;;;3.60;;
31081;SDS011;17737;52.586;13.284;2022-12-18T10:13:04;4.50;;;3.35;;
31081;SDS011;17737;52.586;13.284;2022-12-18T10:15:38;7.40;;;3.78;;
31081;SDS011;17737;52.586;13.284;2022-12-18T10:18:16;4.18;;;2.80;;
31081;SDS011;17737;52.586;13.284;2022-12-18T10:20:52;4.72;;;3.20;;
31081;SDS011;17737;52.586;13.284;2022-12-18T10:23:26;4.75;;;3.40;;
31081;SDS011;17737;52.586;13.284;2022-12-18T10:26:00;4.68;;;3.22;;
31081;SDS011;17737;52.586;13.284;2022-12-18T10:28:31;4.70;;;3.28;;
31081;SDS011;17737;52.586;13.284;2022-12-18T10:31:00;4.50;;;2.95;;
31081;SDS011;17737;52.586;13.284;2022-12-18T10:33:29;4.78;;;3.20;;
31081;SDS011;17737;52.586;13.284;2022-12-18T10:35:59;5.22;;;3.45;;
31081;SDS011;17737;52.586;13.284;2022-12-18T10:38:29;4.18;;;2.90;;
31081;SDS011;17737;52.586;13.284;2022-12-18T10:40:59;3.80;;;2.85;;
31081;SDS011;17737;52.586;13.284;2022-12-18T10:43:28;4.90;;;3.13;;
31081;SDS011;17737;52.586;13.284;2022-12-18T10:46:07;5.72;;;3.38;;
31081;SDS011;17737;52.586;13.284;2022-12-18T10:48:52;4.25;;;2.78;;
31081;SDS011;17737;52.586;13.284;2022-12-18T10:51:23;3.90;;;2.90;;
31081;SDS011;17737;52.586;13.284;2022-12-18T10:53:59;3.60;;;2.63;;
31081;SDS011;17737;52.586;13.284;2022-12-18T10:56:34;4.68;;;3.15;;
31081;SDS011;17737;52.586;13.284;2022-12-18T10:59:05;4.25;;;3.17;;
31081;SDS011;17737;52.586;13.284;2022-12-18T11:01:44;3.90;;;3.13;;
31081;SDS011;17737;52.586;13.284;2022-12-18T11:04:19;4.32;;;2.85;;
31081;SDS011;17737;52.586;13.284;2022-12-18T11:06:55;5.55;;;4.00;;
31081;SDS011;17737;52.586;13.284;2022-12-18T11:09:27;5.15;;;3.05;;
31081;SDS011;17737;52.586;13.284;2022-12-18T11:11:58;5.20;;;3.90;;
31081;SDS011;17737;52.586;13.284;2022-12-18T11:14:27;3.90;;;2.88;;
31081;SDS011;17737;52.586;13.284;2022-12-18T11:16:56;4.20;;;3.25;;
31081;SDS011;17737;52.586;13.284;2022-12-18T11:19:51;4.80;;;3.45;;
31081;SDS011;17737;52.586;13.284;2022-12-18T11:22:22;5.05;;;3.33;;
31081;SDS011;17737;52.586;13.284;2022-12-18T11:24:56;5.13;;;3.33;;
31081;SDS011;17737;52.586;13.284;2022-12-18T11:27:47;4.30;;;3.40;;
31081;SDS011;17737;52.586;13.284;2022-12-18T11:30:20;4.97;;;3.35;;
31081;SDS011;17737;52.586;13.284;2022-12-18T11:32:50;4.75;;;3.05;;
31081;SDS011;17737;52.586;13.284;2022-12-18T11:35:25;4.20;;;2.88;;
31081;SDS011;17737;52.586;13.284;2022-12-18T11:38:02;4.75;;;3.25;;
31081;SDS011;17737;52.586;13.284;2022-12-18T11:40:40;4.53;;;3.25;;
31081;SDS011;17737;52.586;13.284;2022-12-18T11:43:13;4.78;;;3.55;;
31081;SDS011;17737;52.586;13.284;2022-12-18T11:45:49;5.15;;;2.88;;
31081;SDS011;17737;52.586;13.284;2022-12-18T11:48:21;4.30;;;2.83;;
31081;SDS011;17737;52.586;13.284;2022-12-18T11:50:53;4.25;;;3.05;;
31081;SDS011;17737;52.586;13.284;2022-12-18T11:53:22;4.35;;;3.25;;
31081;SDS011;17737;52.586;13.284;2022-12-18T11:56:11;5.35;;;3.13;;
31081;SDS011;17737;52.586;13.284;2022-12-18T11:58:55;4.90;;;3.28;;
31081;SDS011;17737;52.586;13.284;2022-12-18T12:01:38;5.22;;;3.05;;
31081;SDS011;17737;52.586;13.284;2022-12-18T12:07:14;4.15;;;3.30;;
31081;SDS011;17737;52.586;13.284;2022-12-18T12:09:52;4.15;;;2.92;;
31081;SDS011;17737;52.586;13.284;2022-12-18T12:15:17;3.90;;;2.42;;
31081;SDS011;17737;52.586;13.284;2022-12-18T12:17:54;4.25;;;2.58;;
31081;SDS011;17737;52.586;13.284;2022-12-18T12:20:39;3.90;;;2.67;;
31081;SDS011;17737;52.586;13.284;2022-12-18T12:23:16;4.70;;;2.70;;
31081;SDS011;17737;52.586;13.284;2022-12-18T12:25:55;3.63;;;2.80;;
31081;SDS011;17737;52.586;13.284;2022-12-18T12:28:34;4.13;;;2.80;;
31081;SDS011;17737;52.586;13.284;2022-12-18T12:31:19;3.25;;;2.70;;
31081;SDS011;17737;52.586;13.284;2022-12-18T12:34:01;4.10;;;2.60;;
31081;SDS011;17737;52.586;13.284;2022-12-18T12:36:38;4.25;;;2.80;;
31081;SDS011;17737;52.586;13.284;2022-12-18T12:39:20;3.67;;;2.35;;
31081;SDS011;17737;52.586;13.284;2022-12-18T12:41:51;4.10;;;2.90;;
31081;SDS011;17737;52.586;13.284;2022-12-18T12:44:39;3.58;;;2.50;;
31081;SDS011;17737;52.586;13.284;2022-12-18T12:47:14;4.32;;;2.70;;
31081;SDS011;17737;52.586;13.284;2022-12-18T12:49:46;4.70;;;2.92;;
31081;SDS011;17737;52.586;13.284;2022-12-18T12:52:17;4.53;;;3.10;;
31081;SDS011;17737;52.586;13.284;2022-12-18T12:54:53;4.75;;;2.80;;
31081;SDS011;17737;52.586;13.284;2022-12-18T12:57:23;5.30;;;3.35;;
31081;SDS011;17737;52.586;13.284;2022-12-18T13:00:00;4.78;;;3.00;;
31081;SDS011;17737;52.586;13.284;2022-12-18T13:02:33;3.60;;;2.60;;
31081;SDS011;17737;52.586;13.284;2022-12-18T13:05:09;3.80;;;2.63;;
31081;SDS011;17737;52.586;13.284;2022-12-18T13:07:46;4.57;;;2.95;;
31081;SDS011;17737;52.586;13.284;2022-12-18T13:10:34;3.85;;;3.05;;
31081;SDS011;17737;52.586;13.284;2022-12-18T13:13:05;4.53;;;2.72;;
31081;SDS011;17737;52.586;13.284;2022-12-18T13:15:38;4.10;;;2.55;;
31081;SDS011;17737;52.586;13.284;2022-12-18T13:18:12;4.80;;;2.97;;
31081;SDS011;17737;52.586;13.284;2022-12-18T13:20:42;4.43;;;3.33;;
31081;SDS011;17737;52.586;13.284;2022-12-18T13:26:29;4.20;;;2.85;;
31081;SDS011;17737;52.586;13.284;2022-12-18T13:29:00;4.15;;;2.75;;
31081;SDS011;17737;52.586;13.284;2022-12-18T13:34:36;3.42;;;2.22;;
31081;SDS011;17737;52.586;13.284;2022-12-18T13:43:28;3.80;;;2.67;;
31081;SDS011;17737;52.586;13.284;2022-12-18T13:46:00;3.92;;;2.80;;
31081;SDS011;17737;52.586;13.284;2022-12-18T13:48:32;4.20;;;2.63;;
31081;SDS011;17737;52.586;13.284;2022-12-18T13:51:05;3.70;;;2.78;;
31081;SDS011;17737;52.586;13.284;2022-12-18T13:53:36;4.20;;;2.90;;
31081;SDS011;17737;52.586;13.284;2022-12-18T13:56:09;3.38;;;2.42;;
31081;SDS011;17737;52.586;13.284;2022-12-18T13:58:42;3.33;;;2.67;;
31081;SDS011;17737;52.586;13.284;2022-12-18T14:01:20;3.70;;;2.80;;
31081;SDS011;17737;52.586;13.284;2022-12-18T14:03:49;4.40;;;2.90;;
31081;SDS011;17737;52.586;13.284;2022-12-18T14:06:37;3.80;;;2.42;;
31081;SDS011;17737;52.586;13.284;2022-12-18T14:09:05;3.53;;;2.50;;
31081;SDS011;17737;52.586;13.284;2022-12-18T14:11:48;3.80;;;2.60;;
31081;SDS011;17737;52.586;13.284;2022-12-18T14:14:17;3.97;;;2.92;;
31081;SDS011;17737;52.586;13.284;2022-12-18T14:19:15;3.65;;;2.67;;
31081;SDS011;17737;52.586;13.284;2022-12-18T14:21:46;4.28;;;2.92;;
31081;SDS011;17737;52.586;13.284;2022-12-18T14:24:16;4.03;;;2.60;;
31081;SDS011;17737;52.586;13.284;2022-12-18T14:26:46;4.38;;;2.78;;
31081;SDS011;17737;52.586;13.284;2022-12-18T14:29:25;3.80;;;2.15;;
31081;SDS011;17737;52.586;13.284;2022-12-18T14:32:04;5.40;;;3.35;;
31081;SDS011;17737;52.586;13.284;2022-12-18T14:34:42;3.78;;;2.63;;
31081;SDS011;17737;52.586;13.284;2022-12-18T14:37:12;3.90;;;2.90;;
31081;SDS011;17737;52.586;13.284;2022-12-18T14:39:51;3.92;;;2.70;;
31081;SDS011;17737;52.586;13.284;2022-12-18T14:42:20;3.80;;;3.17;;
31081;SDS011;17737;52.586;13.284;2022-12-18T14:44:48;4.60;;;3.58;;
31081;SDS011;17737;52.586;13.284;2022-12-18T14:47:35;4.80;;;3.10;;
31081;SDS011;17737;52.586;13.284;2022-12-18T14:50:03;4.07;;;2.88;;
31081;SDS011;17737;52.586;13.284;2022-12-18T14:52:42;3.67;;;3.03;;
31081;SDS011;17737;52.586;13.284;2022-12-18T14:57:42;4.60;;;2.90;;
31081;SDS011;17737;52.586;13.284;2022-12-18T15:00:14;4.20;;;3.33;;
31081;SDS011;17737;52.586;13.284;2022-12-18T15:02:44;5.32;;;3.60;;
31081;SDS011;17737;52.586;13.284;2022-12-18T15:05:17;4.80;;;3.08;;
31081;SDS011;17737;52.586;13.284;2022-12-18T15:07:49;3.83;;;2.90;;
31081;SDS011;17737;52.586;13.284;2022-12-18T15:10:19;4.35;;;3.30;;
31081;SDS011;17737;52.586;13.284;2022-12-18T15:12:49;4.05;;;3.15;;
31081;SDS011;17737;52.586;13.284;2022-12-18T15:18:15;4.07;;;2.97;;
31081;SDS011;17737;52.586;13.284;2022-12-18T15:23:16;3.83;;;2.90;;
31081;SDS011;17737;52.586;13.284;2022-12-18T15:25:46;4.93;;;3.08;;
31081;SDS011;17737;52.586;13.284;2022-12-18T15:28:17;5.25;;;2.88;;
31081;SDS011;17737;52.586;13.284;2022-12-18T15:30:59;3.88;;;2.97;;
31081;SDS011;17737;52.586;13.284;2022-12-18T15:33:30;3.42;;;2.40;;
31081;SDS011;17737;52.586;13.284;2022-12-18T15:36:00;4.10;;;2.28;;
31081;SDS011;17737;52.586;13.284;2022-12-18T15:38:32;3.30;;;2.13;;
31081;SDS011;17737;52.586;13.284;2022-12-18T15:41:00;3.55;;;2.30;;
31081;SDS011;17737;52.586;13.284;2022-12-18T15:43:28;4.03;;;2.93;;
31081;SDS011;17737;52.586;13.284;2022-12-18T15:46:01;3.80;;;2.90;;
31081;SDS011;17737;52.586;13.284;2022-12-18T15:48:31;3.40;;;2.33;;
31081;SDS011;17737;52.586;13.284;2022-12-18T15:51:01;4.07;;;2.30;;
31081;SDS011;17737;52.586;13.284;2022-12-18T15:53:30;2.92;;;1.98;;